Hovedside
METAR-TAF:

METAR-TAF

Lufthavner :

Björneborg, Finland

Björneborg lufthavn

breddegrad: 61-28N, lengdegrad: 021-48E, høyde over havet: 13 m

Gjeldene værobservasjon

Denne rapporten ble laget for 10 minutter siden, klokken 08:20 UTC
Vind 5 kt fra Nord, skiftende mellom Nord-nordvest og Nordøst
Temperatur -7°C
Luftfuktighet 93%
Trykk 1010 hPa
Sikt: 8000 m
lett snø

METAR: EFPO 220820Z AUTO 36005KT 340V040 8000 -SN OVC007/// M07/M08 Q1010

Tid: 10:30 (08:30 UTC)

Varsel

Denne rapporten ble laget for 3 timer og 4 minutter siden, klokken 05:26 UTC
Varsel gyldig fra 22. klokken 06 UTC til 22. klokken 15 UTC
Vind 6 kt fra Vest-nordvest
Sikt 10 km eller mer
Få skyer i en høyde av 500 ft
Brutte skyer i en høyde av 1500 ft
Midlertidig
fra 22. klokken 06 UTC til 22. klokken 11 UTC
Sikt: 2500 m
Overskyet i en høyde av 500 ft
lett snø

TAF: EFPO 220526Z 2206/2215 30006KT 9999 FEW005 BKN015 TEMPO 2206/2211 2500 -SN OVC005

Værobservasjoner og værvarsel for over 4000 flyplasser (METAR- og TAF-rapporter).

Tilgjengelige stasjoner er representert av de røde og gule prikkene på kartet.

Hold musepekeren over prikken for å se navnet på stasjonen.

Klikk så for å se værobservasjoner og -varsler.

For å forandre kartet kan du klikke på den grønne knappen med svart kryss for å zoome inn, på den grønne knappen med strek for å zoome ut, eller på de grønne pilene for å se tilstøtende kart.


METAR-TAF: